메인 페이지
METAR-TAF:

METAR-TAF

공항 :

Hutchinson, 캔자스, 미국

위도: 38-04-05N, 경도: 097-51-38W, 고도: 470m

현재 날씨관측

예보는 29분 전, 08:52시(UTC)에 발표되었습니다.
동남동6kt
온도 7°C
습도 76%
기압 1019 hPa
시정: 16.1km
고도 1800ft 상공 흐림

METAR: KHUT 200852Z AUTO 11006KT 10SM OVC018 07/03 A3008 RMK AO2 SLP181 T00720028 55009

시각: 04:21 (09:21 UTC)

예보

예보는 3 시간 59분 전, 05:22시(UTC)에 발표되었습니다.
예보 대상 시간: 20일 06시부터 21일 06시까지 (UTC)
6kt
시정: 10km
고도 2200ft 상공 흐림
일시적
20일 08시부터 20일 12시까지 (UTC)
고도 1800ft 상공 흐림
20일 1200시부터 (UTC)
남동8kt
시정: 10km
고도 1800ft 상공 흐림
20일 1700시부터 (UTC)
10kt
시정: 10km
고도 2800ft 상공 구름 많음
20일 2300시부터 (UTC)
7kt
시정: 10km
고도 3500ft 상공 구름 보통
고도 10000ft 상공 구름 많음

TAF: KHUT 200522Z 2006/2106 09006KT P6SM OVC022 TEMPO 2008/2012 OVC018 FM201200 14008KT P6SM OVC018 FM201700 18010KT P6SM BKN028 FM202300 09007KT P6SM SCT035 BKN100

4,000개 이상의 공항 관측 자료 및 예보 (METAR 및 TAF 보고).

지도상에서 검색 가능한 기상관측소가 노란 점과 빨간 점으로 표시되어 있습니다.

기상관측소 명을 보려면 표시 위로 마우스를 이동하세요.

날씨 관측과 예보를 보려면 클릭하세요.

지도 변경 : 확대하려면 엑스 표시가 있는 녹색 버튼, 축소하려면 빼기 표시가 있는 녹색 버튼, 다음 페이지의 지도를 보려면 녹색 화살표를 클릭하세요.


METAR-TAF: